Flight Track Log - Related Links

Times and Time Zones

All times are in EDT time to prevent confusion due to time zone crossing. See the SWA1729 flight status page for this flight to view local times or setup timezone preferences in your user account.

Time Position Orientation Groundspeed Altitude Reporting Facility
EDT Latitude Longitude Course Direction KTS MPH feet Rate Location/Type
Wed 19:48:41 36.1500 -86.6667 360° North 149 171 1,600  Level Nashville TRACON
Wed 19:50:17 36.2167 -86.6667 360° North 216 249 5,300 2,511 Climbing Nashville TRACON
Wed 19:51:45 36.1908 -86.8003 257° West 271 312 9,300 2,432 Climbing Memphis Center
Wed 19:52:45 36.1744 -86.8783 255° West 271 312 11,300 2,150 Climbing Memphis Center
Wed 19:53:45 36.1522 -86.9819 255° West 294 338 13,600 2,500 Climbing Memphis Center
Wed 19:54:45 36.1258 -87.0883 253° West 315 362 16,300 2,200 Climbing Memphis Center
Wed 19:55:45 36.1000 -87.2128 256° West 333 383 18,000 1,850 Climbing Memphis Center
Wed 19:56:45 36.0756 -87.3292 255° West 346 398 20,000 1,884 Climbing Memphis Center
Wed 19:57:46 36.0514 -87.4483 256° West 353 406 21,800 1,850 Climbing Memphis Center
Wed 19:58:45 36.0269 -87.5672 256° West 361 415 23,700 1,765 Climbing Memphis Center
Wed 19:59:45 35.9922 -87.6839 250° West 361 415 25,300 1,750 Climbing Memphis Center
Wed 20:00:45 35.9444 -87.7956 242° Southwest 366 421 27,200 1,700 Climbing Memphis Center
Wed 20:01:45 35.9008 -87.9047 244° Southwest 366 421 28,700 1,550 Climbing Memphis Center
Wed 20:02:45 35.8550 -88.0136 243° Southwest 366 421 30,300 1,500 Climbing Memphis Center
Wed 20:03:45 35.8111 -88.1247 244° Southwest 366 421 31,700 1,300 Climbing Memphis Center
Wed 20:04:45 35.7731 -88.2128 242° Southwest 361 415 32,900 1,100 Climbing Memphis Center
Wed 20:05:45 35.7308 -88.3136 243° Southwest 345 397 33,900 600 Climbing Memphis Center
Wed 20:06:45 35.6847 -88.4197 242° Southwest 345 397 34,100 200 Climbing Memphis Center
Wed 20:07:45 35.6531 -88.5328 251° West 350 403 34,300 650 Climbing Memphis Center
Wed 20:08:45 35.6361 -88.6608 261° West 350 403 35,400 900 Climbing Memphis Center
Wed 20:09:45 35.6042 -88.7661 250° West 340 391 36,100 350 Climbing Memphis Center
Wed 20:10:45 35.5594 -88.8589 239° Southwest 340 391 36,100  Level Memphis Center
Wed 20:11:45 35.5106 -88.9619 240° Southwest 353 406 36,100  Level Memphis Center
Wed 20:12:45 35.4617 -89.0647 240° Southwest 359 413 36,100  Level Memphis Center
Wed 20:13:45 35.4083 -89.1750 239° Southwest 359 413 36,100  Level Memphis Center
Wed 20:14:45 35.3614 -89.2775 241° Southwest 354 407 36,100  Level Memphis Center
Wed 20:15:45 35.3100 -89.3825 239° Southwest 354 407 36,100  Level Memphis Center
Wed 20:16:45 35.2628 -89.4822 240° Southwest 354 407 36,100  Level Memphis Center
Wed 20:17:45 35.2114 -89.5844 238° Southwest 354 407 36,100  Level Memphis Center
Wed 20:18:45 35.1642 -89.6839 240° Southwest 354 407 36,100  Level Memphis Center
Wed 20:19:45 35.1167 -89.7858 240° Southwest 354 407 36,100  Level Memphis Center
Wed 20:20:45 35.0669 -89.8903 240° Southwest 359 413 36,100  Level Memphis Center
Wed 20:21:45 35.0131 -89.9894 236° Southwest 359 413 36,100  Level Memphis Center
Wed 20:22:45 34.9319 -90.0683 219° Southwest 359 413 36,100  Level Memphis Center
Wed 20:23:45 34.8486 -90.1419 216° Southwest 377 434 36,100  Level Memphis Center
Wed 20:24:45 34.7653 -90.2156 216° Southwest 377 434 36,100  Level Memphis Center
Wed 20:25:45 34.6839 -90.2914 217° Southwest 377 434 36,100  Level Memphis Center
Wed 20:26:45 34.6025 -90.3672 217° Southwest 372 428 36,100  Level Memphis Center
Wed 20:27:45 34.5192 -90.4428 217° Southwest 372 428 36,100  Level Memphis Center
Wed 20:28:45 34.4356 -90.5183 217° Southwest 377 434 36,100  Level Memphis Center
Wed 20:29:45 34.3603 -90.5836 216° Southwest 377 434 36,100  Level Memphis Center
Wed 20:30:45 34.2767 -90.6614 218° Southwest 377 434 36,100  Level Memphis Center
Wed 20:31:45 34.1972 -90.7339 217° Southwest 382 440 36,100  Level Memphis Center
Wed 20:32:45 34.1114 -90.8111 217° Southwest 387 445 36,100  Level Memphis Center
Wed 20:33:45 34.0275 -90.8861 217° Southwest 382 440 36,100  Level Memphis Center
Wed 20:34:45 33.9439 -90.9606 216° Southwest 387 445 36,100  Level Memphis Center
Wed 20:35:46 33.8578 -91.0375 217° Southwest 387 445 36,100  Level Memphis Center
Wed 20:36:45 33.7675 -91.1194 217° Southwest 387 445 36,100  Level Memphis Center
Wed 20:37:45 33.6836 -91.1961 217° Southwest 387 445 36,100  Level Memphis Center
Wed 20:39:54 33.5053 -91.3531 216° Southwest 380 437 36,100  Level Fort Worth Center
Wed 20:40:54 33.4214 -91.4283 217° Southwest 380 437 36,100  Level Fort Worth Center
Wed 20:41:54 33.3372 -91.5036 217° Southwest 381 438 36,100  Level Fort Worth Center
Wed 20:42:54 33.2550 -91.5764 217° Southwest 381 438 36,100  Level Fort Worth Center
Wed 20:43:54 33.1647 -91.6542 216° Southwest 387 445 36,100  Level Fort Worth Center
Wed 20:44:54 33.0719 -91.7244 212° Southwest 394 453 36,100  Level Fort Worth Center
Wed 20:45:54 32.9961 -91.8011 220° Southwest 388 447 36,100  Level Fort Worth Center
Wed 20:46:54 32.9078 -91.8761 215° Southwest 382 440 36,100  Level Fort Worth Center
Wed 20:47:54 32.8192 -91.9508 215° Southwest 382 440 36,100  Level Fort Worth Center
Wed 20:48:55 32.7328 -92.0275 217° Southwest 388 447 36,100  Level Fort Worth Center
Wed 20:49:54 32.6442 -92.1069 217° Southwest 394 453 36,100 -37 Level Fort Worth Center
Wed 20:51:38 32.5081 -92.2256 216° Southwest 394 453 36,000 -36 Descending Houston Center
Wed 20:52:40 32.4039 -92.3150 216° Southwest 389 448 36,000  Level Houston Center
Wed 20:53:42 32.3158 -92.3881 215° Southwest 389 448 36,000  Level Houston Center
Wed 20:54:44 32.2294 -92.4639 217° Southwest 389 448 36,000 49 Level Houston Center
Wed 20:55:45 32.1411 -92.5369 215° Southwest 389 448 36,100  Climbing Houston Center
Wed 20:56:47 32.0528 -92.6106 215° Southwest 390 449 36,000 -49 Descending Houston Center
Wed 20:57:48 31.9664 -92.6847 216° Southwest 388 447 36,000 49 Level Houston Center
Wed 20:58:50 31.8944 -92.7747 227° Southwest 386 444 36,100  Climbing Houston Center
Wed 20:59:51 31.8089 -92.8847 228° Southwest 384 442 36,000 -49 Descending Houston Center
Wed 21:00:53 31.7358 -92.9744 226° Southwest 382 440 36,000  Level Houston Center
Wed 21:01:54 31.6647 -93.0667 228° Southwest 382 440 36,000  Level Houston Center
Wed 21:02:56 31.5931 -93.1567 227° Southwest 381 438 36,000  Level Houston Center
Wed 21:03:58 31.5214 -93.2489 228° Southwest 383 441 36,000 49 Level Houston Center
Wed 21:04:59 31.4503 -93.3411 228° Southwest 384 442 36,100 49 Climbing Houston Center
Wed 21:06:00 31.3789 -93.4308 227° Southwest 381 438 36,100  Level Houston Center
Wed 21:07:02 31.2906 -93.5403 227° Southwest 384 442 36,100 -49 Level Houston Center
Wed 21:08:03 31.2186 -93.6300 227° Southwest 380 437 36,000 -49 Descending Houston Center
Wed 21:09:04 31.1453 -93.7206 227° Southwest 383 441 36,000  Level Houston Center
Wed 21:10:06 31.0742 -93.8108 227° Southwest 381 438 36,000  Level Houston Center
Wed 21:11:07 30.9939 -93.9092 226° Southwest 383 441 36,000 -488 Level Houston Center
Wed 21:12:09 30.9269 -93.9917 227° Southwest 386 444 35,000 -1,561 Descending Houston Center
Wed 21:13:10 30.8536 -94.0808 226° Southwest 385 443 32,800 -2,867 Descending Houston Center
Wed 21:13:39 30.8064 -94.1381 226° Southwest 388 447 30,700 -3,556 Descending Houston Center
Wed 21:14:04 30.7744 -94.1767 226° Southwest 392 451 29,600 -2,581 Descending Houston Center
Wed 21:15:05 30.6978 -94.2719 227° Southwest 391 450 27,000 -2,508 Descending Houston Center
Wed 21:16:06 30.6264 -94.3592 226° Southwest 384 442 24,500 -2,410 Descending Houston Center
Wed 21:17:07 30.5531 -94.4464 226° Southwest 369 425 22,100 -2,311 Descending Houston Center
Wed 21:18:08 30.4836 -94.5308 226° Southwest 357 411 19,800 -2,213 Descending Houston Center
Wed 21:19:09 30.4236 -94.6283 235° Southwest 347 399 17,600 -2,311 Descending Houston Center
Wed 21:20:10 30.3633 -94.7208 233° Southwest 359 413 15,100 -2,262 Descending Houston Center
Wed 21:21:11 30.3067 -94.8103 234° Southwest 344 396 13,000 -1,525 Descending Houston Center
Wed 21:22:12 30.2533 -94.8897 232° Southwest 301 346 12,000 -951 Descending Houston Center
Wed 21:24:14 30.1508 -95.0500 234° Southwest 308 354 10,100 -725 Descending Houston Center
Wed 21:25:14 30.0775 -95.0953 208° Southwest 283 326 9,800 -744 Descending Houston Center
Wed 21:26:15 30.0067 -95.1258 200° South 271 312 8,600 -885 Descending Houston Center
Wed 21:27:16 29.9322 -95.1592 201° Southwest 289 333 8,000 -738 Descending Houston Center
Wed 21:28:17 29.8553 -95.1925 201° Southwest 281 323 7,100 -984 Descending Houston Center
Wed 21:29:18 29.7825 -95.2231 200° South 279 321 6,000 -485 Descending Houston Center
Wed 21:30:33 29.6939 -95.2350 187° South 284 327 6,000  Level Houston Center
Wed 21:31:20 29.6264 -95.2372 182° South 251 289 6,000  Level Houston Center
Wed 21:31:35 29.6203 -95.2372 180° South 274 315 6,000  Level Houston Center
Wed 21:32:27 29.5631 -95.2569 197° South 224 258 6,000 -372 Level Houston Center
Wed 21:33:28 29.5128 -95.3039 219° Southwest 229 264 5,300 -1,339 Descending Houston Center
Wed 21:34:28 29.4936 -95.3686 251° West 248 285 3,300 -1,488 Descending Houston Center
Wed 21:35:29 29.5500 -95.3883 343° North 191 220 2,300 -828 Descending Houston Center
Wed 21:36:24 29.5764 -95.3539 49° Northeast 167 192 1,700 -583 Descending Houston Center
Wed 21:36:41 29.5842 -95.3456 43° Northeast 181 208 1,600 -692 Descending Houston Center
Wed 21:37:42 29.6125 -95.3153 43° Northeast 157 181 800 -757 Descending Houston Center
Wed 21:38:32 29.6356 -95.2914 42° Northeast 127 146 200 -720 Descending Houston Center

Login

Don't have an account? Register now (free) for customized features, flight alerts, and more!